sensor_id;sensor_type;location;lat;lon;timestamp;P1;durP1;ratioP1;P2;durP2;ratioP2
57317;SDS011;43157;50.982;18.132;2023-09-18T00:01:45;11.30;;;5.50;;
57317;SDS011;43157;50.982;18.132;2023-09-18T00:04:11;11.20;;;5.80;;
57317;SDS011;43157;50.982;18.132;2023-09-18T00:06:37;11.10;;;5.60;;
57317;SDS011;43157;50.982;18.132;2023-09-18T00:09:02;11.90;;;5.20;;
57317;SDS011;43157;50.982;18.132;2023-09-18T00:11:28;12.70;;;5.40;;
57317;SDS011;43157;50.982;18.132;2023-09-18T00:13:55;13.00;;;6.00;;
57317;SDS011;43157;50.982;18.132;2023-09-18T00:16:21;12.50;;;5.20;;
57317;SDS011;43157;50.982;18.132;2023-09-18T00:18:47;12.30;;;5.20;;
57317;SDS011;43157;50.982;18.132;2023-09-18T00:21:13;11.70;;;5.50;;
57317;SDS011;43157;50.982;18.132;2023-09-18T00:23:40;10.70;;;5.20;;
57317;SDS011;43157;50.982;18.132;2023-09-18T00:26:06;10.50;;;5.20;;
57317;SDS011;43157;50.982;18.132;2023-09-18T00:28:32;11.80;;;5.50;;
57317;SDS011;43157;50.982;18.132;2023-09-18T00:30:58;11.20;;;5.40;;
57317;SDS011;43157;50.982;18.132;2023-09-18T00:33:24;14.60;;;6.00;;
57317;SDS011;43157;50.982;18.132;2023-09-18T00:35:51;12.20;;;5.90;;
57317;SDS011;43157;50.982;18.132;2023-09-18T00:38:17;11.50;;;5.40;;
57317;SDS011;43157;50.982;18.132;2023-09-18T00:40:44;12.30;;;5.80;;
57317;SDS011;43157;50.982;18.132;2023-09-18T00:43:10;11.90;;;6.00;;
57317;SDS011;43157;50.982;18.132;2023-09-18T00:45:41;13.00;;;5.70;;
57317;SDS011;43157;50.982;18.132;2023-09-18T00:48:10;13.90;;;5.60;;
57317;SDS011;43157;50.982;18.132;2023-09-18T00:50:36;11.60;;;5.60;;
57317;SDS011;43157;50.982;18.132;2023-09-18T00:53:02;10.40;;;5.30;;
57317;SDS011;43157;50.982;18.132;2023-09-18T00:55:28;10.30;;;5.10;;
57317;SDS011;43157;50.982;18.132;2023-09-18T00:57:56;13.90;;;6.70;;
57317;SDS011;43157;50.982;18.132;2023-09-18T01:00:22;11.30;;;6.00;;
57317;SDS011;43157;50.982;18.132;2023-09-18T01:02:48;11.70;;;5.80;;
57317;SDS011;43157;50.982;18.132;2023-09-18T01:05:14;11.20;;;5.30;;
57317;SDS011;43157;50.982;18.132;2023-09-18T01:07:42;11.50;;;5.60;;
57317;SDS011;43157;50.982;18.132;2023-09-18T01:10:09;11.80;;;5.60;;
57317;SDS011;43157;50.982;18.132;2023-09-18T01:15:14;12.50;;;6.10;;
57317;SDS011;43157;50.982;18.132;2023-09-18T01:17:43;11.20;;;5.30;;
57317;SDS011;43157;50.982;18.132;2023-09-18T01:20:09;12.70;;;6.10;;
57317;SDS011;43157;50.982;18.132;2023-09-18T01:22:36;13.30;;;6.20;;
57317;SDS011;43157;50.982;18.132;2023-09-18T01:25:02;10.80;;;5.60;;
57317;SDS011;43157;50.982;18.132;2023-09-18T01:27:28;13.10;;;5.80;;
57317;SDS011;43157;50.982;18.132;2023-09-18T01:29:54;12.10;;;6.00;;
57317;SDS011;43157;50.982;18.132;2023-09-18T01:32:21;11.40;;;5.70;;
57317;SDS011;43157;50.982;18.132;2023-09-18T01:34:51;14.40;;;6.50;;
57317;SDS011;43157;50.982;18.132;2023-09-18T01:37:20;11.80;;;5.90;;
57317;SDS011;43157;50.982;18.132;2023-09-18T01:39:47;12.20;;;6.10;;
57317;SDS011;43157;50.982;18.132;2023-09-18T01:42:14;12.70;;;6.00;;
57317;SDS011;43157;50.982;18.132;2023-09-18T01:44:40;12.40;;;6.50;;
57317;SDS011;43157;50.982;18.132;2023-09-18T01:47:07;11.10;;;6.00;;
57317;SDS011;43157;50.982;18.132;2023-09-18T01:49:35;11.20;;;5.60;;
57317;SDS011;43157;50.982;18.132;2023-09-18T01:52:05;15.30;;;6.70;;
57317;SDS011;43157;50.982;18.132;2023-09-18T01:54:32;13.10;;;6.70;;
57317;SDS011;43157;50.982;18.132;2023-09-18T01:56:59;14.60;;;6.10;;
57317;SDS011;43157;50.982;18.132;2023-09-18T01:59:25;13.40;;;6.10;;
57317;SDS011;43157;50.982;18.132;2023-09-18T02:01:52;11.90;;;6.40;;
57317;SDS011;43157;50.982;18.132;2023-09-18T02:04:21;14.50;;;7.00;;
57317;SDS011;43157;50.982;18.132;2023-09-18T02:06:50;12.20;;;6.50;;
57317;SDS011;43157;50.982;18.132;2023-09-18T02:09:16;12.60;;;7.20;;
57317;SDS011;43157;50.982;18.132;2023-09-18T02:11:43;12.80;;;6.60;;
57317;SDS011;43157;50.982;18.132;2023-09-18T02:14:10;14.10;;;6.80;;
57317;SDS011;43157;50.982;18.132;2023-09-18T02:16:37;14.50;;;6.70;;
57317;SDS011;43157;50.982;18.132;2023-09-18T02:19:06;12.10;;;6.70;;
57317;SDS011;43157;50.982;18.132;2023-09-18T02:21:32;14.40;;;6.60;;
57317;SDS011;43157;50.982;18.132;2023-09-18T02:23:58;12.20;;;6.10;;
57317;SDS011;43157;50.982;18.132;2023-09-18T02:26:25;14.10;;;6.70;;
57317;SDS011;43157;50.982;18.132;2023-09-18T02:28:52;13.90;;;6.30;;
57317;SDS011;43157;50.982;18.132;2023-09-18T02:31:21;13.40;;;6.80;;
57317;SDS011;43157;50.982;18.132;2023-09-18T02:33:48;12.50;;;6.90;;
57317;SDS011;43157;50.982;18.132;2023-09-18T02:36:14;14.20;;;7.90;;
57317;SDS011;43157;50.982;18.132;2023-09-18T02:38:40;13.50;;;7.40;;
57317;SDS011;43157;50.982;18.132;2023-09-18T02:41:07;13.70;;;7.20;;
57317;SDS011;43157;50.982;18.132;2023-09-18T02:43:33;13.50;;;6.80;;
57317;SDS011;43157;50.982;18.132;2023-09-18T02:45:59;16.00;;;7.60;;
57317;SDS011;43157;50.982;18.132;2023-09-18T02:48:25;14.10;;;7.10;;
57317;SDS011;43157;50.982;18.132;2023-09-18T02:50:51;13.50;;;6.60;;
57317;SDS011;43157;50.982;18.132;2023-09-18T02:53:18;14.80;;;6.80;;
57317;SDS011;43157;50.982;18.132;2023-09-18T02:55:52;12.90;;;7.10;;
57317;SDS011;43157;50.982;18.132;2023-09-18T02:58:19;13.40;;;7.50;;
57317;SDS011;43157;50.982;18.132;2023-09-18T03:00:46;13.60;;;6.90;;
57317;SDS011;43157;50.982;18.132;2023-09-18T03:03:14;15.90;;;7.80;;
57317;SDS011;43157;50.982;18.132;2023-09-18T03:05:42;14.00;;;6.90;;
57317;SDS011;43157;50.982;18.132;2023-09-18T03:08:09;14.70;;;7.20;;
57317;SDS011;43157;50.982;18.132;2023-09-18T03:10:36;15.50;;;7.60;;
57317;SDS011;43157;50.982;18.132;2023-09-18T03:13:05;14.50;;;7.20;;
57317;SDS011;43157;50.982;18.132;2023-09-18T03:15:32;14.00;;;6.70;;
57317;SDS011;43157;50.982;18.132;2023-09-18T03:17:58;13.30;;;7.60;;
57317;SDS011;43157;50.982;18.132;2023-09-18T03:20:25;14.40;;;7.50;;
57317;SDS011;43157;50.982;18.132;2023-09-18T03:22:52;13.70;;;7.80;;
57317;SDS011;43157;50.982;18.132;2023-09-18T03:25:19;14.40;;;7.70;;
57317;SDS011;43157;50.982;18.132;2023-09-18T03:27:45;15.60;;;8.50;;
57317;SDS011;43157;50.982;18.132;2023-09-18T03:30:11;15.20;;;7.80;;
57317;SDS011;43157;50.982;18.132;2023-09-18T03:32:38;16.30;;;7.90;;
57317;SDS011;43157;50.982;18.132;2023-09-18T03:35:04;17.00;;;8.40;;
57317;SDS011;43157;50.982;18.132;2023-09-18T03:37:31;14.70;;;7.60;;
57317;SDS011;43157;50.982;18.132;2023-09-18T03:39:57;16.50;;;8.50;;
57317;SDS011;43157;50.982;18.132;2023-09-18T03:42:23;16.00;;;8.60;;
57317;SDS011;43157;50.982;18.132;2023-09-18T03:44:49;16.20;;;8.20;;
57317;SDS011;43157;50.982;18.132;2023-09-18T03:47:16;15.30;;;8.10;;
57317;SDS011;43157;50.982;18.132;2023-09-18T03:49:42;16.30;;;8.20;;
57317;SDS011;43157;50.982;18.132;2023-09-18T03:52:08;15.50;;;8.30;;
57317;SDS011;43157;50.982;18.132;2023-09-18T03:54:34;14.30;;;7.60;;
57317;SDS011;43157;50.982;18.132;2023-09-18T03:57:01;14.30;;;8.20;;
57317;SDS011;43157;50.982;18.132;2023-09-18T03:59:27;14.90;;;7.80;;
57317;SDS011;43157;50.982;18.132;2023-09-18T04:14:03;14.30;;;8.20;;
57317;SDS011;43157;50.982;18.132;2023-09-18T04:16:29;12.40;;;7.70;;
57317;SDS011;43157;50.982;18.132;2023-09-18T04:19:07;13.70;;;8.20;;
57317;SDS011;43157;50.982;18.132;2023-09-18T04:21:33;15.50;;;8.10;;
57317;SDS011;43157;50.982;18.132;2023-09-18T04:24:00;17.00;;;8.70;;
57317;SDS011;43157;50.982;18.132;2023-09-18T04:26:26;14.10;;;8.00;;
57317;SDS011;43157;50.982;18.132;2023-09-18T04:28:59;13.30;;;7.80;;
57317;SDS011;43157;50.982;18.132;2023-09-18T04:31:25;13.30;;;8.10;;
57317;SDS011;43157;50.982;18.132;2023-09-18T04:33:53;14.50;;;8.70;;
57317;SDS011;43157;50.982;18.132;2023-09-18T04:36:19;14.30;;;8.50;;
57317;SDS011;43157;50.982;18.132;2023-09-18T04:38:45;16.60;;;8.80;;
57317;SDS011;43157;50.982;18.132;2023-09-18T04:41:11;16.00;;;9.30;;
57317;SDS011;43157;50.982;18.132;2023-09-18T04:43:37;16.20;;;8.60;;
57317;SDS011;43157;50.982;18.132;2023-09-18T04:46:04;15.70;;;9.20;;
57317;SDS011;43157;50.982;18.132;2023-09-18T04:48:31;16.60;;;9.10;;
57317;SDS011;43157;50.982;18.132;2023-09-18T04:50:57;16.50;;;9.10;;
57317;SDS011;43157;50.982;18.132;2023-09-18T04:53:24;18.10;;;9.20;;
57317;SDS011;43157;50.982;18.132;2023-09-18T04:55:50;17.50;;;8.70;;
57317;SDS011;43157;50.982;18.132;2023-09-18T04:58:17;17.90;;;10.10;;
57317;SDS011;43157;50.982;18.132;2023-09-18T05:00:42;16.40;;;9.70;;
57317;SDS011;43157;50.982;18.132;2023-09-18T05:03:09;18.10;;;9.40;;
57317;SDS011;43157;50.982;18.132;2023-09-18T05:05:36;17.00;;;9.00;;
57317;SDS011;43157;50.982;18.132;2023-09-18T05:08:02;18.80;;;10.00;;
57317;SDS011;43157;50.982;18.132;2023-09-18T05:10:33;17.40;;;10.30;;
57317;SDS011;43157;50.982;18.132;2023-09-18T05:13:00;19.60;;;10.10;;
57317;SDS011;43157;50.982;18.132;2023-09-18T05:15:26;16.60;;;9.70;;
57317;SDS011;43157;50.982;18.132;2023-09-18T05:17:54;18.70;;;10.20;;
57317;SDS011;43157;50.982;18.132;2023-09-18T05:20:26;17.30;;;9.80;;
57317;SDS011;43157;50.982;18.132;2023-09-18T05:22:53;17.30;;;9.70;;
57317;SDS011;43157;50.982;18.132;2023-09-18T05:25:21;16.90;;;10.30;;
57317;SDS011;43157;50.982;18.132;2023-09-18T05:27:47;16.80;;;9.70;;
57317;SDS011;43157;50.982;18.132;2023-09-18T05:30:15;17.90;;;10.20;;
57317;SDS011;43157;50.982;18.132;2023-09-18T05:32:43;19.10;;;10.10;;
57317;SDS011;43157;50.982;18.132;2023-09-18T05:35:10;16.40;;;9.90;;
57317;SDS011;43157;50.982;18.132;2023-09-18T05:37:38;18.10;;;9.40;;
57317;SDS011;43157;50.982;18.132;2023-09-18T05:40:05;17.80;;;9.10;;
57317;SDS011;43157;50.982;18.132;2023-09-18T05:42:35;18.90;;;9.60;;
57317;SDS011;43157;50.982;18.132;2023-09-18T05:45:02;16.50;;;9.50;;
57317;SDS011;43157;50.982;18.132;2023-09-18T05:47:31;17.00;;;9.00;;
57317;SDS011;43157;50.982;18.132;2023-09-18T05:49:57;20.30;;;9.50;;
57317;SDS011;43157;50.982;18.132;2023-09-18T05:52:24;15.30;;;9.50;;
57317;SDS011;43157;50.982;18.132;2023-09-18T05:54:50;16.90;;;8.90;;
57317;SDS011;43157;50.982;18.132;2023-09-18T05:57:17;17.60;;;9.10;;
57317;SDS011;43157;50.982;18.132;2023-09-18T05:59:43;16.60;;;9.00;;
57317;SDS011;43157;50.982;18.132;2023-09-18T06:02:10;15.70;;;9.30;;
57317;SDS011;43157;50.982;18.132;2023-09-18T06:04:37;16.00;;;9.20;;
57317;SDS011;43157;50.982;18.132;2023-09-18T06:07:06;15.40;;;8.70;;
57317;SDS011;43157;50.982;18.132;2023-09-18T06:09:31;19.20;;;9.00;;
57317;SDS011;43157;50.982;18.132;2023-09-18T06:11:57;18.70;;;9.80;;
57317;SDS011;43157;50.982;18.132;2023-09-18T06:14:24;16.00;;;8.80;;
57317;SDS011;43157;50.982;18.132;2023-09-18T06:16:51;15.90;;;9.00;;
57317;SDS011;43157;50.982;18.132;2023-09-18T06:19:17;14.80;;;8.80;;
57317;SDS011;43157;50.982;18.132;2023-09-18T06:21:44;15.80;;;9.20;;
57317;SDS011;43157;50.982;18.132;2023-09-18T06:24:10;19.10;;;9.60;;
57317;SDS011;43157;50.982;18.132;2023-09-18T06:26:37;15.80;;;9.10;;
57317;SDS011;43157;50.982;18.132;2023-09-18T06:29:03;16.80;;;9.60;;
57317;SDS011;43157;50.982;18.132;2023-09-18T06:31:29;16.20;;;8.70;;
57317;SDS011;43157;50.982;18.132;2023-09-18T06:33:56;16.40;;;9.40;;
57317;SDS011;43157;50.982;18.132;2023-09-18T06:36:22;16.60;;;9.00;;
57317;SDS011;43157;50.982;18.132;2023-09-18T06:38:49;16.60;;;9.60;;
57317;SDS011;43157;50.982;18.132;2023-09-18T06:41:15;16.60;;;9.70;;
57317;SDS011;43157;50.982;18.132;2023-09-18T06:43:41;17.20;;;9.20;;
57317;SDS011;43157;50.982;18.132;2023-09-18T06:46:07;17.20;;;9.50;;
57317;SDS011;43157;50.982;18.132;2023-09-18T06:48:33;16.80;;;9.50;;
57317;SDS011;43157;50.982;18.132;2023-09-18T06:51:00;17.30;;;9.70;;
57317;SDS011;43157;50.982;18.132;2023-09-18T06:53:26;14.80;;;8.80;;
57317;SDS011;43157;50.982;18.132;2023-09-18T06:55:55;14.80;;;8.40;;
57317;SDS011;43157;50.982;18.132;2023-09-18T06:58:21;15.10;;;8.70;;
57317;SDS011;43157;50.982;18.132;2023-09-18T07:00:47;14.00;;;8.30;;
57317;SDS011;43157;50.982;18.132;2023-09-18T07:03:16;15.50;;;9.10;;
57317;SDS011;43157;50.982;18.132;2023-09-18T07:05:43;16.00;;;9.60;;
57317;SDS011;43157;50.982;18.132;2023-09-18T07:08:09;15.20;;;9.10;;
57317;SDS011;43157;50.982;18.132;2023-09-18T07:10:37;15.80;;;9.00;;
57317;SDS011;43157;50.982;18.132;2023-09-18T07:13:04;16.00;;;8.80;;
57317;SDS011;43157;50.982;18.132;2023-09-18T07:15:30;13.70;;;8.50;;
57317;SDS011;43157;50.982;18.132;2023-09-18T07:17:56;13.60;;;8.30;;
57317;SDS011;43157;50.982;18.132;2023-09-18T07:20:22;15.70;;;8.90;;
57317;SDS011;43157;50.982;18.132;2023-09-18T07:22:50;15.80;;;8.50;;
57317;SDS011;43157;50.982;18.132;2023-09-18T07:25:16;14.60;;;9.00;;
57317;SDS011;43157;50.982;18.132;2023-09-18T07:27:42;15.10;;;8.70;;
57317;SDS011;43157;50.982;18.132;2023-09-18T07:30:11;14.70;;;8.60;;
57317;SDS011;43157;50.982;18.132;2023-09-18T07:32:41;14.50;;;8.70;;
57317;SDS011;43157;50.982;18.132;2023-09-18T07:35:08;14.30;;;8.90;;
57317;SDS011;43157;50.982;18.132;2023-09-18T07:37:35;13.80;;;8.50;;
57317;SDS011;43157;50.982;18.132;2023-09-18T07:40:05;14.80;;;8.80;;
57317;SDS011;43157;50.982;18.132;2023-09-18T07:42:32;14.20;;;8.40;;
57317;SDS011;43157;50.982;18.132;2023-09-18T07:44:58;16.90;;;8.80;;
57317;SDS011;43157;50.982;18.132;2023-09-18T07:47:25;19.20;;;8.80;;
57317;SDS011;43157;50.982;18.132;2023-09-18T07:49:51;16.40;;;8.90;;
57317;SDS011;43157;50.982;18.132;2023-09-18T07:52:17;15.10;;;8.60;;
57317;SDS011;43157;50.982;18.132;2023-09-18T07:54:43;13.30;;;8.50;;
57317;SDS011;43157;50.982;18.132;2023-09-18T07:57:10;16.30;;;8.90;;
57317;SDS011;43157;50.982;18.132;2023-09-18T07:59:36;13.80;;;8.50;;
57317;SDS011;43157;50.982;18.132;2023-09-18T08:02:02;14.90;;;8.40;;
57317;SDS011;43157;50.982;18.132;2023-09-18T08:04:31;14.90;;;9.20;;
57317;SDS011;43157;50.982;18.132;2023-09-18T08:06:57;14.20;;;8.70;;
57317;SDS011;43157;50.982;18.132;2023-09-18T08:09:23;14.50;;;9.40;;
57317;SDS011;43157;50.982;18.132;2023-09-18T08:11:50;16.70;;;8.90;;
57317;SDS011;43157;50.982;18.132;2023-09-18T08:14:16;20.00;;;9.40;;
57317;SDS011;43157;50.982;18.132;2023-09-18T08:16:42;15.30;;;9.30;;
57317;SDS011;43157;50.982;18.132;2023-09-18T08:19:10;17.30;;;8.60;;
57317;SDS011;43157;50.982;18.132;2023-09-18T08:21:36;16.70;;;9.10;;
57317;SDS011;43157;50.982;18.132;2023-09-18T08:24:03;15.40;;;9.40;;
57317;SDS011;43157;50.982;18.132;2023-09-18T08:26:29;18.10;;;9.60;;
57317;SDS011;43157;50.982;18.132;2023-09-18T08:28:55;15.70;;;9.40;;
57317;SDS011;43157;50.982;18.132;2023-09-18T08:31:22;14.30;;;8.70;;
57317;SDS011;43157;50.982;18.132;2023-09-18T08:33:48;14.30;;;9.50;;
57317;SDS011;43157;50.982;18.132;2023-09-18T08:36:14;16.20;;;10.00;;
57317;SDS011;43157;50.982;18.132;2023-09-18T08:38:41;17.60;;;10.60;;
57317;SDS011;43157;50.982;18.132;2023-09-18T08:41:08;15.40;;;9.30;;
57317;SDS011;43157;50.982;18.132;2023-09-18T08:43:38;16.50;;;9.60;;
57317;SDS011;43157;50.982;18.132;2023-09-18T08:46:06;17.70;;;9.80;;
57317;SDS011;43157;50.982;18.132;2023-09-18T08:48:32;16.90;;;9.80;;
57317;SDS011;43157;50.982;18.132;2023-09-18T08:51:05;15.90;;;10.10;;
57317;SDS011;43157;50.982;18.132;2023-09-18T08:53:32;16.30;;;9.90;;
57317;SDS011;43157;50.982;18.132;2023-09-18T08:55:59;16.90;;;10.30;;
57317;SDS011;43157;50.982;18.132;2023-09-18T08:58:27;16.30;;;9.50;;
57317;SDS011;43157;50.982;18.132;2023-09-18T09:00:54;17.20;;;10.40;;
57317;SDS011;43157;50.982;18.132;2023-09-18T09:03:21;15.40;;;9.40;;
57317;SDS011;43157;50.982;18.132;2023-09-18T09:05:47;15.40;;;9.90;;
57317;SDS011;43157;50.982;18.132;2023-09-18T09:08:13;15.30;;;10.10;;
57317;SDS011;43157;50.982;18.132;2023-09-18T09:10:40;18.20;;;9.80;;
57317;SDS011;43157;50.982;18.132;2023-09-18T09:13:06;14.80;;;9.20;;
57317;SDS011;43157;50.982;18.132;2023-09-18T09:15:34;18.10;;;9.40;;
57317;SDS011;43157;50.982;18.132;2023-09-18T09:18:12;15.70;;;9.20;;
57317;SDS011;43157;50.982;18.132;2023-09-18T09:20:39;16.20;;;10.10;;
57317;SDS011;43157;50.982;18.132;2023-09-18T09:23:09;17.30;;;10.00;;
57317;SDS011;43157;50.982;18.132;2023-09-18T09:25:36;18.60;;;10.30;;
57317;SDS011;43157;50.982;18.132;2023-09-18T09:28:04;16.90;;;10.30;;
57317;SDS011;43157;50.982;18.132;2023-09-18T09:30:32;16.70;;;10.40;;
57317;SDS011;43157;50.982;18.132;2023-09-18T09:32:59;17.20;;;10.00;;
57317;SDS011;43157;50.982;18.132;2023-09-18T09:35:29;15.30;;;9.40;;
57317;SDS011;43157;50.982;18.132;2023-09-18T09:37:57;17.30;;;10.10;;
57317;SDS011;43157;50.982;18.132;2023-09-18T09:40:26;17.40;;;10.20;;
57317;SDS011;43157;50.982;18.132;2023-09-18T09:42:53;15.60;;;10.00;;
57317;SDS011;43157;50.982;18.132;2023-09-18T09:45:28;14.70;;;8.70;;
57317;SDS011;43157;50.982;18.132;2023-09-18T09:47:58;14.60;;;7.40;;
57317;SDS011;43157;50.982;18.132;2023-09-18T09:50:25;15.80;;;9.40;;
57317;SDS011;43157;50.982;18.132;2023-09-18T09:52:52;19.00;;;10.40;;
57317;SDS011;43157;50.982;18.132;2023-09-18T09:55:27;17.00;;;10.20;;
57317;SDS011;43157;50.982;18.132;2023-09-18T09:58:00;15.80;;;9.70;;
57317;SDS011;43157;50.982;18.132;2023-09-18T10:00:37;16.60;;;9.70;;
57317;SDS011;43157;50.982;18.132;2023-09-18T10:03:12;15.20;;;9.40;;
57317;SDS011;43157;50.982;18.132;2023-09-18T10:05:47;16.70;;;9.60;;
57317;SDS011;43157;50.982;18.132;2023-09-18T10:08:18;15.30;;;9.60;;
57317;SDS011;43157;50.982;18.132;2023-09-18T10:13:17;18.50;;;10.00;;
57317;SDS011;43157;50.982;18.132;2023-09-18T10:15:49;15.20;;;9.40;;
57317;SDS011;43157;50.982;18.132;2023-09-18T10:18:25;16.90;;;9.80;;
57317;SDS011;43157;50.982;18.132;2023-09-18T10:26:24;17.40;;;9.60;;
57317;SDS011;43157;50.982;18.132;2023-09-18T10:28:54;17.50;;;9.50;;
57317;SDS011;43157;50.982;18.132;2023-09-18T10:31:25;16.50;;;10.20;;
57317;SDS011;43157;50.982;18.132;2023-09-18T10:33:52;18.20;;;9.30;;
57317;SDS011;43157;50.982;18.132;2023-09-18T10:36:19;15.60;;;9.10;;
57317;SDS011;43157;50.982;18.132;2023-09-18T10:38:46;16.40;;;8.90;;
57317;SDS011;43157;50.982;18.132;2023-09-18T10:41:15;13.20;;;8.80;;
57317;SDS011;43157;50.982;18.132;2023-09-18T10:43:44;15.90;;;9.40;;
57317;SDS011;43157;50.982;18.132;2023-09-18T10:46:11;17.80;;;11.00;;
57317;SDS011;43157;50.982;18.132;2023-09-18T10:48:40;18.60;;;10.40;;
57317;SDS011;43157;50.982;18.132;2023-09-18T10:51:07;16.20;;;9.00;;
57317;SDS011;43157;50.982;18.132;2023-09-18T10:53:34;14.70;;;9.30;;
57317;SDS011;43157;50.982;18.132;2023-09-18T10:56:01;13.80;;;9.50;;
57317;SDS011;43157;50.982;18.132;2023-09-18T10:58:29;14.70;;;9.30;;
57317;SDS011;43157;50.982;18.132;2023-09-18T11:00:56;15.00;;;8.50;;
57317;SDS011;43157;50.982;18.132;2023-09-18T11:03:23;16.70;;;10.00;;
57317;SDS011;43157;50.982;18.132;2023-09-18T11:06:01;14.00;;;9.10;;
57317;SDS011;43157;50.982;18.132;2023-09-18T11:08:44;18.90;;;10.90;;
57317;SDS011;43157;50.982;18.132;2023-09-18T11:11:12;18.30;;;9.50;;
57317;SDS011;43157;50.982;18.132;2023-09-18T11:13:43;16.00;;;9.70;;
57317;SDS011;43157;50.982;18.132;2023-09-18T11:18:49;14.80;;;9.70;;
57317;SDS011;43157;50.982;18.132;2023-09-18T11:21:18;14.50;;;8.50;;
57317;SDS011;43157;50.982;18.132;2023-09-18T11:23:44;15.80;;;9.30;;
57317;SDS011;43157;50.982;18.132;2023-09-18T11:26:10;13.90;;;8.80;;
57317;SDS011;43157;50.982;18.132;2023-09-18T11:28:37;15.40;;;9.90;;
57317;SDS011;43157;50.982;18.132;2023-09-18T11:31:03;16.80;;;10.00;;
57317;SDS011;43157;50.982;18.132;2023-09-18T11:33:36;19.60;;;10.70;;
57317;SDS011;43157;50.982;18.132;2023-09-18T11:36:07;16.10;;;10.20;;
57317;SDS011;43157;50.982;18.132;2023-09-18T11:43:52;13.70;;;8.50;;
57317;SDS011;43157;50.982;18.132;2023-09-18T11:46:19;14.90;;;9.00;;
57317;SDS011;43157;50.982;18.132;2023-09-18T11:48:47;16.10;;;9.80;;
57317;SDS011;43157;50.982;18.132;2023-09-18T11:51:20;16.50;;;10.50;;
57317;SDS011;43157;50.982;18.132;2023-09-18T11:53:47;14.60;;;8.90;;
57317;SDS011;43157;50.982;18.132;2023-09-18T11:56:13;15.30;;;9.30;;
57317;SDS011;43157;50.982;18.132;2023-09-18T11:58:45;17.60;;;10.00;;
57317;SDS011;43157;50.982;18.132;2023-09-18T12:01:12;16.60;;;9.50;;
57317;SDS011;43157;50.982;18.132;2023-09-18T12:03:41;16.70;;;9.40;;
57317;SDS011;43157;50.982;18.132;2023-09-18T12:06:07;14.70;;;9.00;;
57317;SDS011;43157;50.982;18.132;2023-09-18T12:08:35;16.40;;;10.40;;
57317;SDS011;43157;50.982;18.132;2023-09-18T12:11:04;16.40;;;10.20;;
57317;SDS011;43157;50.982;18.132;2023-09-18T12:13:33;14.00;;;9.30;;
57317;SDS011;43157;50.982;18.132;2023-09-18T12:16:02;15.60;;;9.60;;
57317;SDS011;43157;50.982;18.132;2023-09-18T12:18:34;15.70;;;9.20;;
57317;SDS011;43157;50.982;18.132;2023-09-18T12:21:05;14.20;;;8.80;;
57317;SDS011;43157;50.982;18.132;2023-09-18T12:23:38;15.50;;;9.20;;
57317;SDS011;43157;50.982;18.132;2023-09-18T12:26:04;17.80;;;9.50;;
57317;SDS011;43157;50.982;18.132;2023-09-18T12:28:33;17.50;;;10.20;;
57317;SDS011;43157;50.982;18.132;2023-09-18T12:31:02;15.80;;;9.30;;
57317;SDS011;43157;50.982;18.132;2023-09-18T12:33:35;13.60;;;8.80;;
57317;SDS011;43157;50.982;18.132;2023-09-18T12:36:05;16.20;;;9.10;;
57317;SDS011;43157;50.982;18.132;2023-09-18T12:38:32;14.80;;;8.50;;
57317;SDS011;43157;50.982;18.132;2023-09-18T12:41:01;14.90;;;9.30;;
57317;SDS011;43157;50.982;18.132;2023-09-18T12:43:41;13.80;;;7.90;;
57317;SDS011;43157;50.982;18.132;2023-09-18T12:46:07;14.10;;;8.70;;
57317;SDS011;43157;50.982;18.132;2023-09-18T12:48:38;14.00;;;8.60;;
57317;SDS011;43157;50.982;18.132;2023-09-18T12:51:11;14.60;;;8.50;;
57317;SDS011;43157;50.982;18.132;2023-09-18T12:53:37;15.60;;;8.70;;
57317;SDS011;43157;50.982;18.132;2023-09-18T12:56:06;16.20;;;8.90;;
57317;SDS011;43157;50.982;18.132;2023-09-18T12:58:33;15.40;;;9.10;;
57317;SDS011;43157;50.982;18.132;2023-09-18T13:01:03;16.80;;;9.20;;
57317;SDS011;43157;50.982;18.132;2023-09-18T13:03:42;15.00;;;9.00;;
57317;SDS011;43157;50.982;18.132;2023-09-18T13:06:15;14.40;;;9.00;;
57317;SDS011;43157;50.982;18.132;2023-09-18T13:08:45;12.80;;;8.20;;
57317;SDS011;43157;50.982;18.132;2023-09-18T13:11:11;15.50;;;9.00;;
57317;SDS011;43157;50.982;18.132;2023-09-18T13:13:39;17.10;;;9.00;;
57317;SDS011;43157;50.982;18.132;2023-09-18T13:16:07;15.80;;;8.90;;
57317;SDS011;43157;50.982;18.132;2023-09-18T13:18:37;13.80;;;8.00;;
57317;SDS011;43157;50.982;18.132;2023-09-18T13:21:13;13.40;;;7.70;;
57317;SDS011;43157;50.982;18.132;2023-09-18T13:23:39;14.80;;;8.30;;
57317;SDS011;43157;50.982;18.132;2023-09-18T13:26:06;13.80;;;8.00;;
57317;SDS011;43157;50.982;18.132;2023-09-18T13:28:35;13.60;;;8.50;;
57317;SDS011;43157;50.982;18.132;2023-09-18T13:31:05;16.30;;;8.70;;
57317;SDS011;43157;50.982;18.132;2023-09-18T13:33:32;14.90;;;8.60;;
57317;SDS011;43157;50.982;18.132;2023-09-18T13:35:58;16.20;;;8.90;;
57317;SDS011;43157;50.982;18.132;2023-09-18T13:38:25;14.70;;;8.90;;
57317;SDS011;43157;50.982;18.132;2023-09-18T13:40:52;15.70;;;9.70;;
57317;SDS011;43157;50.982;18.132;2023-09-18T13:43:20;17.00;;;8.80;;
57317;SDS011;43157;50.982;18.132;2023-09-18T13:45:48;16.40;;;8.10;;
57317;SDS011;43157;50.982;18.132;2023-09-18T13:48:17;16.30;;;8.80;;
57317;SDS011;43157;50.982;18.132;2023-09-18T13:50:43;13.90;;;8.50;;
57317;SDS011;43157;50.982;18.132;2023-09-18T13:53:10;14.00;;;8.70;;
57317;SDS011;43157;50.982;18.132;2023-09-18T13:55:36;14.00;;;8.30;;
57317;SDS011;43157;50.982;18.132;2023-09-18T13:58:02;14.30;;;8.10;;
57317;SDS011;43157;50.982;18.132;2023-09-18T14:00:29;17.50;;;9.10;;
57317;SDS011;43157;50.982;18.132;2023-09-18T14:02:55;12.60;;;8.00;;
57317;SDS011;43157;50.982;18.132;2023-09-18T14:05:21;15.90;;;8.60;;
57317;SDS011;43157;50.982;18.132;2023-09-18T14:07:47;16.30;;;8.90;;
57317;SDS011;43157;50.982;18.132;2023-09-18T14:10:13;14.80;;;8.90;;
57317;SDS011;43157;50.982;18.132;2023-09-18T14:12:41;13.00;;;8.70;;
57317;SDS011;43157;50.982;18.132;2023-09-18T14:18:04;15.00;;;8.90;;
57317;SDS011;43157;50.982;18.132;2023-09-18T14:20:30;13.40;;;9.10;;
57317;SDS011;43157;50.982;18.132;2023-09-18T14:22:57;14.40;;;8.10;;
57317;SDS011;43157;50.982;18.132;2023-09-18T14:25:24;14.30;;;8.90;;
57317;SDS011;43157;50.982;18.132;2023-09-18T14:27:54;16.90;;;9.50;;
57317;SDS011;43157;50.982;18.132;2023-09-18T14:30:22;14.00;;;8.90;;
57317;SDS011;43157;50.982;18.132;2023-09-18T14:32:51;15.30;;;9.10;;
57317;SDS011;43157;50.982;18.132;2023-09-18T14:35:18;19.80;;;9.20;;
57317;SDS011;43157;50.982;18.132;2023-09-18T14:37:44;13.00;;;8.20;;
57317;SDS011;43157;50.982;18.132;2023-09-18T14:40:10;14.90;;;8.90;;
57317;SDS011;43157;50.982;18.132;2023-09-18T14:42:37;14.00;;;9.00;;
57317;SDS011;43157;50.982;18.132;2023-09-18T14:45:04;13.90;;;9.00;;
57317;SDS011;43157;50.982;18.132;2023-09-18T14:47:30;15.90;;;9.00;;
57317;SDS011;43157;50.982;18.132;2023-09-18T14:49:56;15.90;;;8.70;;
57317;SDS011;43157;50.982;18.132;2023-09-18T14:52:23;15.70;;;9.50;;
57317;SDS011;43157;50.982;18.132;2023-09-18T14:54:51;14.10;;;9.00;;
57317;SDS011;43157;50.982;18.132;2023-09-18T14:57:17;16.00;;;9.80;;